Terminal Aerodrome Forecast
Issued by NWS Jacksonville, FL

Home | Current Version | Previous Version | Text Only | Print | Product List | Glossary On
Versions: 1 2 3 4 5 6 7 8 9 10 11 12 13 14 15 16 17 18 19 20 21 22 23 24 25 26 27 28 29 30
768
FTUS42 KJAX 180520
TAFJAX
TAF
KJAX 180520Z 1806/1906 22003KT P6SM SCT250
     FM180900 22003KT 2SM BR OVC003
     FM181100 22002KT 1SM BR OVC002
     FM181430 24004KT 5SM BR BKN007
     FM181630 27005KT P6SM SCT015 BKN100
     FM181800 05005KT P6SM SCT025 BKN100
     FM182000 09008KT P6SM SCT100
     FM190300 09003KT 6SM BR SCT250=

USA.gov is the U.S. government's official web portal to all federal, state and local government web resources and services.